createdAt,value
2023-05-12T04:00:41.437Z,4.03
2023-05-12T04:04:53.038Z,3.38
2023-05-12T04:09:05.085Z,4.63
2023-05-12T04:13:24.542Z,6.57
2023-05-12T04:17:36.816Z,3.90
2023-05-12T04:21:48.383Z,2.95
2023-05-12T04:26:02.819Z,3.20
2023-05-12T04:30:14.602Z,3.40
2023-05-12T04:34:27.906Z,2.92
2023-05-12T04:38:41.673Z,3.28
2023-05-12T04:42:53.839Z,3.30
2023-05-12T04:47:05.582Z,4.93
2023-05-12T04:51:17.298Z,3.15
2023-05-12T04:55:28.936Z,2.97
2023-05-12T04:59:42.329Z,5.18
2023-05-12T05:03:53.936Z,3.97
2023-05-12T05:08:05.655Z,4.03
2023-05-12T05:12:18.199Z,4.20
2023-05-12T05:16:29.913Z,3.85
2023-05-12T05:20:45.212Z,4.22
2023-05-12T05:24:58.559Z,4.30
2023-05-12T05:29:10.580Z,4.40
2023-05-12T05:33:22.406Z,5.30
2023-05-12T05:37:34.072Z,5.97
2023-05-12T05:41:45.674Z,4.45
2023-05-12T05:45:58.180Z,5.85
2023-05-12T05:50:10.186Z,5.30
2023-05-12T05:54:25.416Z,6.50
2023-05-12T05:58:37.590Z,7.60
2023-05-12T06:02:49.942Z,7.07
2023-05-12T06:07:04.597Z,6.22
2023-05-12T06:11:17.934Z,6.97
2023-05-12T06:15:29.618Z,6.53
2023-05-12T06:19:41.213Z,8.70
2023-05-12T06:23:52.749Z,6.22
2023-05-12T06:28:04.270Z,7.13
2023-05-12T06:32:15.870Z,5.85
2023-05-12T06:36:28.755Z,5.22
2023-05-12T06:40:40.265Z,5.82
2023-05-12T06:44:51.914Z,5.32
2023-05-12T06:49:06.265Z,6.90
2023-05-12T06:53:19.690Z,7.90
2023-05-12T06:57:31.254Z,7.38
2023-05-12T07:01:43.092Z,7.55
2023-05-12T07:05:54.791Z,8.10
2023-05-12T07:10:07.433Z,5.90
2023-05-12T07:14:18.921Z,6.05
2023-05-12T07:18:31.983Z,6.22
2023-05-12T07:22:43.619Z,7.25
2023-05-12T07:26:55.136Z,7.25
2023-05-12T07:31:07.990Z,6.78
2023-05-12T07:35:19.668Z,5.75
2023-05-12T07:39:32.332Z,6.78
2023-05-12T07:43:43.873Z,7.93
2023-05-12T07:47:55.445Z,6.43
2023-05-12T07:52:07.001Z,5.57
2023-05-12T07:56:18.488Z,6.43
2023-05-12T08:00:29.998Z,6.88
2023-05-12T08:04:42.677Z,5.28
2023-05-12T08:08:58.065Z,4.15
2023-05-12T08:13:09.597Z,4.95
2023-05-12T08:17:21.167Z,7.35
2023-05-12T08:21:32.780Z,4.85
2023-05-12T08:25:44.594Z,4.35
2023-05-12T08:29:56.128Z,3.90
2023-05-12T08:34:10.854Z,3.92
2023-05-12T08:38:22.756Z,4.93
2023-05-12T08:42:42.538Z,3.92
2023-05-12T08:46:57.120Z,4.50
2023-05-12T08:51:13.097Z,3.75
2023-05-12T08:55:29.712Z,3.30
2023-05-12T08:59:44.677Z,3.15
2023-05-12T09:03:56.319Z,3.15
2023-05-12T09:08:09.432Z,4.65
2023-05-12T09:12:22.280Z,3.60
2023-05-12T09:16:43.421Z,2.70
2023-05-12T09:20:55.035Z,3.28
2023-05-12T09:25:20.383Z,2.83
2023-05-12T09:29:45.143Z,2.53
2023-05-12T09:34:10.362Z,2.60
2023-05-12T09:38:21.905Z,3.17
2023-05-12T09:42:35.599Z,2.50
2023-05-12T09:46:48.013Z,2.40
2023-05-12T09:51:00.129Z,2.15
2023-05-12T09:55:12.754Z,1.70
2023-05-12T09:59:27.058Z,3.67
2023-05-12T10:03:41.003Z,2.20
2023-05-12T10:07:55.970Z,2.60
2023-05-12T10:12:08.379Z,2.58
2023-05-12T10:16:21.681Z,2.20
2023-05-12T10:20:34.160Z,1.80
2023-05-12T10:24:46.248Z,2.70
2023-05-12T10:28:58.188Z,2.55
2023-05-12T10:33:11.449Z,5.50
2023-05-12T10:37:23.431Z,3.00
2023-05-12T10:41:35.500Z,2.95
2023-05-12T10:45:47.047Z,2.88
2023-05-12T10:49:59.576Z,3.38
2023-05-12T10:54:19.028Z,3.00
2023-05-12T10:58:30.906Z,2.63
2023-05-12T11:02:51.170Z,2.58
2023-05-12T11:07:06.188Z,3.28
2023-05-12T11:11:18.490Z,4.28
2023-05-12T11:15:30.437Z,3.60
2023-05-12T11:19:49.476Z,5.38
2023-05-12T11:24:02.298Z,3.58
2023-05-12T11:28:13.789Z,5.45
2023-05-12T11:32:25.266Z,3.15
2023-05-12T11:36:42.183Z,3.70
2023-05-12T11:40:53.805Z,3.03
2023-05-12T11:45:06.252Z,3.25
2023-05-12T11:49:17.830Z,6.65
2023-05-12T11:53:29.385Z,3.38
2023-05-12T11:57:40.979Z,3.10
2023-05-12T12:01:52.553Z,2.97
2023-05-12T12:06:06.692Z,2.75
2023-05-12T12:10:18.842Z,2.90
2023-05-12T12:14:32.156Z,2.63
2023-05-12T12:18:43.827Z,3.08
2023-05-12T12:22:55.487Z,3.40
2023-05-12T12:27:07.104Z,3.10
2023-05-12T12:31:18.713Z,3.40
2023-05-12T12:35:30.498Z,3.15
2023-05-12T12:39:41.996Z,3.17
2023-05-12T12:43:53.571Z,6.88
2023-05-12T12:48:06.602Z,3.55
2023-05-12T12:52:18.191Z,3.53
2023-05-12T12:56:29.969Z,3.50
2023-05-12T13:00:41.492Z,3.70
2023-05-12T13:04:53.009Z,3.13
2023-05-12T13:09:04.957Z,4.82
2023-05-12T13:13:16.816Z,3.90
2023-05-12T13:17:28.566Z,4.97
2023-05-12T13:21:40.504Z,4.65
2023-05-12T13:25:52.119Z,8.18
2023-05-12T13:30:06.232Z,4.95
2023-05-12T13:34:17.892Z,3.33
2023-05-12T13:38:29.475Z,3.72
2023-05-12T13:42:41.000Z,5.15
2023-05-12T13:46:52.630Z,4.13
2023-05-12T13:51:04.308Z,4.90
2023-05-12T13:55:20.901Z,3.80
2023-05-12T13:59:33.028Z,5.28
2023-05-12T14:03:46.796Z,4.88
2023-05-12T14:07:58.329Z,5.00
2023-05-12T14:12:10.104Z,4.80
2023-05-12T14:16:21.675Z,6.22
2023-05-12T14:20:33.653Z,5.25
2023-05-12T14:24:45.799Z,5.13
2023-05-12T14:28:57.393Z,5.88
2023-05-12T14:33:09.131Z,5.07
2023-05-12T14:37:24.077Z,6.20
2023-05-12T14:41:42.162Z,5.68
2023-05-12T14:46:04.491Z,5.40
2023-05-12T14:50:21.522Z,4.93
2023-05-12T14:54:33.870Z,5.60
2023-05-12T14:59:20.129Z,7.25
2023-05-12T15:03:33.579Z,5.13
2023-05-12T15:07:48.253Z,5.30
2023-05-12T15:11:59.869Z,5.78
2023-05-12T15:16:19.354Z,5.72
2023-05-12T15:20:30.971Z,4.28
2023-05-12T15:24:43.103Z,4.18
2023-05-12T15:28:54.789Z,5.47
2023-05-12T15:33:07.460Z,4.32
2023-05-12T15:37:19.289Z,4.45
2023-05-12T15:41:31.031Z,4.45
2023-05-12T15:45:42.649Z,4.40
2023-05-12T15:50:02.566Z,5.30
2023-05-12T15:54:14.393Z,6.13
2023-05-12T15:58:29.579Z,6.18
2023-05-12T16:02:41.192Z,6.60
2023-05-12T16:07:00.150Z,6.93
2023-05-12T16:11:13.139Z,6.75
2023-05-12T16:15:24.658Z,9.52
2023-05-12T16:19:36.170Z,7.85
2023-05-12T16:23:47.737Z,9.05
2023-05-12T16:27:59.409Z,8.75
2023-05-12T16:32:11.635Z,8.57
2023-05-12T16:36:24.544Z,7.97
2023-05-12T16:40:36.210Z,7.53
2023-05-12T16:44:47.784Z,8.85
2023-05-12T16:48:59.306Z,9.82
2023-05-12T16:53:10.892Z,8.07
2023-05-12T16:57:22.586Z,7.82
2023-05-12T17:01:35.972Z,8.43
2023-05-12T17:05:47.568Z,9.70
2023-05-12T17:09:59.109Z,8.23
2023-05-12T17:14:10.637Z,7.32
2023-05-12T17:18:24.617Z,7.40
2023-05-12T17:22:41.273Z,7.47
2023-05-12T17:26:53.632Z,7.28
2023-05-12T17:31:06.796Z,10.27
2023-05-12T17:35:18.405Z,8.93
2023-05-12T17:39:29.904Z,7.85
2023-05-12T17:43:41.440Z,9.68
2023-05-12T17:47:53.490Z,8.57
2023-05-12T17:52:05.538Z,11.93
2023-05-12T17:56:17.152Z,8.32
2023-05-12T18:00:28.628Z,8.02
2023-05-12T18:04:40.302Z,8.02
2023-05-12T18:08:52.217Z,7.28
2023-05-12T18:13:03.729Z,6.97
2023-05-12T18:17:15.357Z,7.65
2023-05-12T18:21:26.878Z,6.88
2023-05-12T18:25:38.562Z,6.47
2023-05-12T18:29:50.087Z,7.97
2023-05-12T18:34:02.001Z,8.65
2023-05-12T18:38:13.680Z,10.60
2023-05-12T18:42:29.081Z,5.70
2023-05-12T18:46:40.752Z,7.22
2023-05-12T18:50:52.445Z,9.65
2023-05-12T18:55:04.227Z,12.15
2023-05-12T18:59:15.773Z,9.93
2023-05-12T19:03:27.365Z,8.02
2023-05-12T19:07:38.935Z,7.35
2023-05-12T19:11:50.546Z,6.18
2023-05-12T19:16:02.065Z,6.75
2023-05-12T19:20:14.171Z,4.40
2023-05-12T19:24:26.885Z,4.30
2023-05-12T19:28:38.465Z,5.75
2023-05-12T19:32:50.258Z,4.32
2023-05-12T19:37:02.265Z,4.30
2023-05-12T19:41:13.943Z,3.10
2023-05-12T19:45:25.674Z,4.43
2023-05-12T19:49:37.305Z,2.80
2023-05-12T19:53:48.844Z,2.92
2023-05-12T19:58:01.859Z,2.50
2023-05-12T20:02:14.734Z,2.15
2023-05-12T20:06:26.321Z,2.55
2023-05-12T20:10:37.903Z,2.72
2023-05-12T20:14:49.919Z,2.97
2023-05-12T20:19:03.085Z,2.72
2023-05-12T20:23:15.000Z,2.83
2023-05-12T20:27:26.556Z,4.03
2023-05-12T20:31:38.116Z,4.30
2023-05-12T20:35:49.696Z,5.65
2023-05-12T20:40:01.478Z,3.97
2023-05-12T20:44:13.000Z,3.63
2023-05-12T20:48:24.537Z,4.50
2023-05-12T20:52:37.076Z,5.07
2023-05-12T20:56:48.565Z,4.90
2023-05-12T21:01:00.056Z,4.97
2023-05-12T21:05:11.588Z,4.75
2023-05-12T21:09:23.157Z,4.65
2023-05-12T21:13:34.661Z,3.50
2023-05-12T21:17:46.256Z,4.20
2023-05-12T21:21:58.698Z,3.45
2023-05-12T21:26:10.452Z,4.47
